Condiciones actuales en los principales Aeropuertos de España-Datos Metar

 

LEAL - Alicante
Actualización: 28/01/2020 01:00
Despejado
Despejado
 Viento del O
Viento: O 13 km/h
Temperatura: 8°C
Wind Chill: 6°C
Rocío: 5°C
Humedad: 82%
Barómetro: 1023 hPa
Resumen: Despejado
Visibilidad: greater than 10 km
2020/01/28 00:00 LEAL 280000Z 28007KT CAVOK 08/05 Q1023 NOSIG
LEAB - Albacete
Actualización: 28/01/2020 01:00
Mostly Cloudy
Mostly Cloudy
 Viento del OSO
Viento: OSO 17 km/h
Temperatura: 8°C
Wind Chill: 5°C
Rocío: 4°C
Humedad: 76%
Barómetro: 1024 hPa
Nubosidad: Mostly Cloudy
Visibilidad: 10 km
Cloud details: Mostly Cloudy 884 m
2020/01/28 00:00 LEAB 280000Z 25009KT 9999 BKN029 08/04 Q1024 NOSIG
LEAM - Almería
Actualización: 28/01/2020 01:00
Despejado
Despejado
 Viento del NNO
Viento: NNO 13 km/h
Temperatura: 10°C
Wind Chill: 8°C
Rocío: 8°C
Humedad: 88%
Barómetro: 1024 hPa
Resumen: Despejado
Visibilidad: greater than 10 km
2020/01/28 00:00 LEAM 280000Z AUTO 33007KT CAVOK 10/08 Q1024
 
LEAS - Asturias/Aviles
Actualización: 28/01/2020 01:00
Mostly Cloudy
Mostly Cloudy
 Viento del ONO
Viento: ONO 30 km/h
Temperatura: 12°C
Rocío: 9°C
Humedad: 82%
Barómetro: 1015 hPa
Nubosidad: Mostly Cloudy
Visibilidad: 10 km
Cloud details: Few Clouds 640 m
Partly Cloudy 1737 m
Mostly Cloudy 2012 m
2020/01/28 00:00 LEAS 280000Z AUTO 29016KT 9999 FEW021 SCT057 BKN066 12/09 Q1015
LEBZ - Badajoz/Talavera la Real
Actualización: 28/01/2020 00:00
NO Actualizado
Mostly Cloudy
Mostly Cloudy
 Viento del SO
Viento: SO 22 km/h
Temperatura: 14°C
Rocío: 11°C
Humedad: 82%
Barómetro: 1025 hPa
Nubosidad: Mostly Cloudy
Visibilidad: 10 km
Cloud details: Few Clouds 457 m
Partly Cloudy 1067 m
Mostly Cloudy 1372 m
2020/01/27 23:00 LEBZ 272300Z 22012KT 9999 FEW015 SCT035 BKN045 14/11 Q1025
LEBL - Barcelona
Actualización: 28/01/2020 01:00
Despejado
Despejado
 Viento del calm
Viento: Calma
Temperatura: 11°C
Rocío: 5°C
Humedad: 67%
Barómetro: 1018 hPa
Resumen: Despejado
Visibilidad: greater than 10 km
2020/01/28 00:00 LEBL 280000Z 00000KT CAVOK 11/05 Q1018 NOSIG
 
LEBB - Bilbao
Actualización: 28/01/2020 01:00
Partly Cloudy
Partly Cloudy
 Viento del O
Viento: O 6 km/h
Temperatura: 11°C
Rocío: 10°C
Humedad: 94%
Barómetro: 1015 hPa
Nubosidad: Partly Cloudy
Visibilidad: 10 km
Cloud details: Partly Cloudy 2134 m
2020/01/28 00:00 LEBB 280000Z AUTO 28003KT 230V350 9999 SCT070 11/10 Q1015
LEBG - Burgos/Villafría
Actualización: 28/01/2020 01:00
Light drizzle, Cubierto
Light drizzle, Cubierto
 Viento del SSO
Viento: SSO 39 km/h
Temperatura: 7°C
Wind Chill: 2°C
Rocío: 7°C
Humedad: 100%
Barómetro: 1017 hPa
Resumen: Light Drizzle
Nubosidad: Cubierto
Visibilidad: 6 km
Cloud details: Cubierto 213 m
2020/01/28 00:00 LEBG 280000Z AUTO 21021KT 6000 -DZ OVC007 07/07 Q1017
LEBA - Córdoba
Actualización: 28/01/2020 01:00
Cubierto
Cubierto
 Viento del varies
Viento: varies 2 km/h
Temperatura: 10°C
Rocío: 9°C
Humedad: 94%
Barómetro: 1027 hPa
Nubosidad: Cubierto
Visibilidad: 10 km
Cloud details: Cubierto 549 m
2020/01/28 00:00 LEBA 280000Z AUTO VRB01KT 9999 OVC018 10/09 Q1027
 
LEGE - Gerona
Actualización: 28/01/2020 01:00
Few Clouds
Few Clouds
 Viento del OSO
Viento: OSO 9 km/h
Temperatura: 8°C
Wind Chill: 6°C
Rocío: 4°C
Humedad: 76%
Barómetro: 1016 hPa
Nubosidad: Few Clouds
Visibilidad: 10 km
Cloud details: Few Clouds 1219 m
2020/01/28 00:00 LEGE 280000Z 24005KT 190V300 9999 FEW040 08/04 Q1016
LEGR - Granada
Actualización: 28/01/2020 01:00
Despejado
Despejado
 Viento del calm
Viento: Calma
Temperatura: 3°C
Rocío: 2°C
Humedad: 93%
Barómetro: 1027 hPa
Resumen: Despejado
Visibilidad: greater than 10 km
2020/01/28 00:00 LEGR 280000Z AUTO 00000KT CAVOK 03/02 Q1027
GCHI - Hierro
Actualización: 28/01/2020 01:00
Mostly Cloudy
Mostly Cloudy
 Viento del ENE
Viento: ENE 26 km/h
Temperatura: 19°C
Rocío: 13°C
Humedad: 68%
Barómetro: 1024 hPa
Nubosidad: Mostly Cloudy
Visibilidad: 10 km
Cloud details: Mostly Cloudy 1250 m
2020/01/28 00:00 GCHI 280000Z AUTO 06014KT 9999 BKN041 19/13 Q1024
 
LEIB - Ibiza
Actualización: 28/01/2020 01:00
Few Clouds
Few Clouds
 Viento del OSO
Viento: OSO 22 km/h
Temperatura: 13°C
Rocío: 10°C
Humedad: 82%
Barómetro: 1022 hPa
Nubosidad: Few Clouds
Visibilidad: 10 km
Cloud details: Few Clouds 488 m
2020/01/28 00:00 LEIB 280000Z AUTO 25012KT 9999 FEW016/// 13/10 Q1022
LEJR - Jerez de la Frontera
Actualización: 28/01/2020 01:30
Mist, Cubierto
Mist, Cubierto
 Viento del E
Viento: E 4 km/h
Temperatura: 11°C
Rocío: 10°C
Humedad: 94%
Barómetro: 1027 hPa
Resumen: Mist
Nubosidad: Cubierto
Visibilidad: 5 km
Cloud details: Partly Cloudy 701 m
Mostly Cloudy 1128 m
Cubierto 1341 m
2020/01/28 00:30 LEJR 280030Z AUTO 09002KT 5000 BR SCT023 BKN037 OVC044 11/10 Q1027
LECO - A Coruña
Actualización: 28/01/2020 01:00
Partly Cloudy
Partly Cloudy
 Viento del SO
Viento: SO 15 km/h
Temperatura: 10°C
Wind Chill: 8°C
Rocío: 8°C
Humedad: 88%
Barómetro: 1018 hPa
Nubosidad: Partly Cloudy
Visibilidad: 10 km
Cloud details: Partly Cloudy 1372 m
2020/01/28 00:00 LECO 280000Z 23008KT 9999 SCT045 10/08 Q1018 NOSIG
 
GCLA - La Palma
Actualización: 28/01/2020 01:00
Mostly Cloudy
Mostly Cloudy
 Viento del NNO
Viento: NNO 11 km/h
Temperatura: 18°C
Rocío: 10°C
Humedad: 60%
Barómetro: 1025 hPa
Nubosidad: Mostly Cloudy
Visibilidad: 10 km
Cloud details: Few Clouds 1006 m
Mostly Cloudy 1219 m
2020/01/28 00:00 GCLA 280000Z AUTO 33006KT 300V010 9999 FEW033 BKN040 18/10 Q1025
GCRR - Lanzarote
Actualización: 28/01/2020 01:00
Few Clouds
Few Clouds
 Viento del NNE
Viento: NNE 15 km/h
Temperatura: 16°C
Rocío: 13°C
Humedad: 83%
Barómetro: 1024 hPa
Nubosidad: Few Clouds
Visibilidad: 10 km
Cloud details: Few Clouds 518 m
2020/01/28 00:00 GCRR 280000Z 03008KT 9999 FEW017 16/13 Q1024
GCLP - Las Palmas
Actualización: 28/01/2020 01:00
Few Clouds
Few Clouds
 Viento del N
Viento: N 22 km/h
Temperatura: 17°C
Rocío: 12°C
Humedad: 73%
Barómetro: 1024 hPa
Nubosidad: Few Clouds
Visibilidad: 10 km
Cloud details: Few Clouds 762 m
2020/01/28 00:00 GCLP 280000Z 01012KT 9999 FEW025 17/12 Q1024 NOSIG
 
LELN - León
Actualización: 28/01/2020 01:00
Cubierto
Cubierto
 Viento del O
Viento: O 13 km/h
Temperatura: 7°C
Wind Chill: 5°C
Rocío: 7°C
Humedad: 100%
Barómetro: 1016 hPa
Nubosidad: Cubierto
Visibilidad: 10 km
Cloud details: Mostly Cloudy 579 m
Mostly Cloudy 732 m
Cubierto 1097 m
2020/01/28 00:00 LELN 280000Z AUTO 26007KT 220V290 9999 BKN019 BKN024 OVC036 07/07 Q1016
LELO - Logroño
Actualización: 28/01/2020 01:00
Mostly Cloudy
Mostly Cloudy
 Viento del varies
Viento: varies 2 km/h
Temperatura: 5°C
Rocío: 4°C
Humedad: 93%
Barómetro: 1017 hPa
Nubosidad: Mostly Cloudy
Visibilidad: 9 km
Cloud details: Mostly Cloudy 1798 m
2020/01/28 00:00 LELO 280000Z AUTO VRB01KT 9000 BKN059 05/04 Q1017
LECV - Madrid/Colmenar
Actualización: 27/01/2020 19:00
NO Actualizado
Mostly Cloudy
Mostly Cloudy
 Viento del S
Viento: S 6 km/h
Temperatura: 5°C
Rocío: 5°C
Humedad: 100%
Barómetro: 1021 hPa
Nubosidad: Mostly Cloudy
Visibilidad: 10 km
Cloud details: Mostly Cloudy 213 m
2020/01/27 18:00 LECV 271800Z 19003KT 9999 BKN007 05/05 Q1021
 
LEMD - Madrid/Barajas
Actualización: 28/01/2020 01:00
Cubierto
Cubierto
 Viento del SO
Viento: SO 22 km/h, Racha: 41 km/h
Temperatura: 9°C
Wind Chill: 6°C
Rocío: 8°C
Humedad: 94%
Barómetro: 1022 hPa
Nubosidad: Cubierto
Visibilidad: 10 km
Cloud details: Partly Cloudy 213 m
Cubierto 366 m
2020/01/28 00:00 LEMD 280000Z 22012G22KT 180V240 9999 SCT007 OVC012 09/08 Q1022 NOSIG
LEVS - Madrid/Cuatro Vientos
Actualización: 27/01/2020 20:00
NO Actualizado
Mostly Cloudy
Mostly Cloudy
 Viento del SSO
Viento: SSO 17 km/h
Temperatura: 9°C
Wind Chill: 7°C
Rocío: 7°C
Humedad: 87%
Barómetro: 1022 hPa
Nubosidad: Mostly Cloudy
Visibilidad: 10 km
Cloud details: Mostly Cloudy 610 m
2020/01/27 19:00 LEVS 271900Z 21009KT 9999 BKN020 09/07 Q1022
LEGT - Madrid/Getafe
Actualización: 27/01/2020 23:00
NO Actualizado
Mostly Cloudy
Mostly Cloudy
 Viento del SO
Viento: SO 15 km/h
Temperatura: 9°C
Wind Chill: 7°C
Rocío: 8°C
Humedad: 94%
Barómetro: 1023 hPa
Nubosidad: Mostly Cloudy
Visibilidad: 10 km
Cloud details: Few Clouds 152 m
Mostly Cloudy 305 m
2020/01/27 22:00 LEGT 272200Z 23008KT 9999 FEW005 BKN010 09/08 Q1023
 
LETO - Madrid/Torrejón
Actualización: 28/01/2020 01:00
Mostly Cloudy
Mostly Cloudy
 Viento del SSO
Viento: SSO 17 km/h
Temperatura: 8°C
Wind Chill: 5°C
Rocío: 8°C
Humedad: 100%
Barómetro: 1022 hPa
Nubosidad: Mostly Cloudy
Visibilidad: 10 km
Cloud details: Partly Cloudy 244 m
Mostly Cloudy 305 m
2020/01/28 00:00 LETO 280000Z 21009KT 9999 SCT008 BKN010 08/08 Q1022 NOSIG
LEMG - Málaga
Actualización: 28/01/2020 01:00
Few Clouds
Few Clouds
 Viento del ONO
Viento: ONO 26 km/h
Temperatura: 14°C
Rocío: 9°C
Humedad: 72%
Barómetro: 1026 hPa
Nubosidad: Few Clouds
Visibilidad: 10 km
Cloud details: Few Clouds 1219 m
2020/01/28 00:00 LEMG 280000Z 29014KT 9999 FEW040 14/09 Q1026 NOSIG
GEML - Melilla
Actualización: 28/01/2020 01:00
Despejado
Despejado
 Viento del OSO
Viento: OSO 9 km/h
Temperatura: 14°C
Rocío: 4°C
Humedad: 51%
Barómetro: 1026 hPa
Resumen: Despejado
Visibilidad: greater than 10 km
2020/01/28 00:00 GEML 280000Z AUTO 25005KT 210V280 CAVOK 14/04 Q1026
 
LEMH - Mahón
Actualización: 28/01/2020 01:00
Mostly Cloudy
Mostly Cloudy
 Viento del OSO
Viento: OSO 26 km/h
Temperatura: 13°C
Rocío: 10°C
Humedad: 82%
Barómetro: 1019 hPa
Nubosidad: Mostly Cloudy
Visibilidad: 10 km
Cloud details: Few Clouds 457 m
Partly Cloudy 549 m
Mostly Cloudy 610 m
2020/01/28 00:00 LEMH 280000Z AUTO 24014KT 200V270 9999 FEW015/// SCT018/// BKN020/// 13/10 Q1019
LEMO - Morón de La Frontera
Actualización: 28/01/2020 01:00
Partly Cloudy
Partly Cloudy
 Viento del S
Viento: S 11 km/h
Temperatura: 12°C
Rocío: 10°C
Humedad: 88%
Barómetro: 1027 hPa
Nubosidad: Partly Cloudy
Visibilidad: 10 km
Cloud details: Few Clouds 884 m
Partly Cloudy 1067 m
2020/01/28 00:00 LEMO 280000Z 18006KT 9999 FEW029 SCT035 12/10 Q1027 NOSIG
LEMI - Murcia/Corvera
Actualización: 28/01/2020 01:00
Despejado
Despejado
 Viento del NO
Viento: NO 13 km/h
Temperatura: 8°C
Wind Chill: 6°C
Rocío: 5°C
Humedad: 82%
Barómetro: 1024 hPa
Resumen: Despejado
Visibilidad: greater than 10 km
2020/01/28 00:00 LEMI 280000Z AUTO 31007KT CAVOK 08/05 Q1024
 
LERI - Murcia/Alcantarilla
Actualización: 27/01/2020 19:00
NO Actualizado
Despejado
Despejado
 Viento del SO
Viento: SO 9 km/h
Temperatura: 11°C
Rocío: 8°C
Humedad: 82%
Barómetro: 1023 hPa
Resumen: Despejado
Visibilidad: greater than 10 km
2020/01/27 18:00 LERI 271800Z 23005KT CAVOK 11/08 Q1023 NOSIG
LELC - Murcia/San Javier
Actualización: 28/01/2020 01:00
Despejado
Despejado
 Viento del NNO
Viento: NNO 9 km/h
Temperatura: 8°C
Wind Chill: 6°C
Rocío: 8°C
Humedad: 100%
Barómetro: 1024 hPa
Resumen: Despejado
Visibilidad: greater than 10 km
2020/01/28 00:00 LELC 280000Z AUTO 33005KT CAVOK 08/08 Q1024
LEPA - Palma de Mallorca
Actualización: 28/01/2020 01:00
Few Clouds
Few Clouds
 Viento del OSO
Viento: OSO 19 km/h
Temperatura: 14°C
Rocío: 10°C
Humedad: 77%
Barómetro: 1020 hPa
Nubosidad: Few Clouds
Visibilidad: 10 km
Cloud details: Few Clouds 671 m
2020/01/28 00:00 LEPA 280000Z 25010KT 9999 FEW022 14/10 Q1020 NOSIG
 
LEPP - Pamplona
Actualización: 28/01/2020 01:00
Cubierto
Cubierto
 Viento del varies
Viento: varies 2 km/h
Temperatura: 9°C
Rocío: 5°C
Humedad: 76%
Barómetro: 1016 hPa
Nubosidad: Cubierto
Visibilidad: 10 km
Cloud details: Cubierto 1219 m
2020/01/28 00:00 LEPP 280000Z AUTO VRB01KT 9999 OVC040 09/05 Q1016
LERS - Reus
Actualización: 28/01/2020 01:00
Despejado
Despejado
 Viento del ONO
Viento: ONO 7 km/h
Temperatura: 9°C
Wind Chill: 8°C
Rocío: 4°C
Humedad: 71%
Barómetro: 1018 hPa
Resumen: Despejado
Visibilidad: greater than 10 km
2020/01/28 00:00 LERS 280000Z AUTO 29004KT 250V320 CAVOK 09/04 Q1018
LERT - Rota
Actualización: 28/01/2020 01:00
Mostly Cloudy
Mostly Cloudy
 Viento del calm
Viento: Calma
Temperatura: 14°C
Rocío: 12°C
Humedad: 88%
Barómetro: 1027 hPa
Nubosidad: Mostly Cloudy
Visibilidad: 10 km
Cloud details: Few Clouds 549 m
Partly Cloudy 762 m
Mostly Cloudy 1067 m
2020/01/28 00:00 LERT 280000Z 00000KT 9999 FEW018 SCT025 BKN035 14/12 Q1027 NOSIG
 
LELL - Sabadell
Actualización: 28/01/2020 01:00
Despejado
Despejado
 Viento del O
Viento: O 9 km/h
Temperatura: 9°C
Wind Chill: 7°C
Rocío: 4°C
Humedad: 71%
Barómetro: 1017 hPa
Resumen: Despejado
Visibilidad: greater than 10 km
2020/01/28 00:00 LELL 280000Z AUTO 28005KT 250V330 CAVOK 09/04 Q1017
LESA - Salamanca
Actualización: 28/01/2020 01:00
Mostly Cloudy
Mostly Cloudy
 Viento del SO
Viento: SO 17 km/h
Temperatura: 9°C
Wind Chill: 7°C
Rocío: 7°C
Humedad: 87%
Barómetro: 1020 hPa
Nubosidad: Mostly Cloudy
Visibilidad: 10 km
Cloud details: Partly Cloudy 671 m
Mostly Cloudy 884 m
2020/01/28 00:00 LESA 280000Z AUTO 22009KT 9999 SCT022 BKN029 09/07 Q1020
LESO - San Sebastián
Actualización: 28/01/2020 01:00
Few Clouds
Few Clouds
 Viento del varies
Viento: varies 6 km/h
Temperatura: 13°C
Rocío: 10°C
Humedad: 82%
Barómetro: 1014 hPa
Nubosidad: Few Clouds
Visibilidad: 10 km
Cloud details: Few Clouds 1829 m
2020/01/28 00:00 LESO 280000Z AUTO VRB03KT 9999 FEW060 13/10 Q1014
 
LEXJ - Santander
Actualización: 28/01/2020 01:00
Lluvia débil, Muy nuboso
Lluvia débil, Muy nuboso
 Viento del varies
Viento: varies 4 km/h
Temperatura: 12°C
Rocío: 11°C
Humedad: 94%
Barómetro: 1015 hPa
Resumen: Light Rain
Nubosidad: Mostly Cloudy
Visibilidad: 7 km
Cloud details: Mostly Cloudy 366 m
Mostly Cloudy 914 m
Mostly Cloudy 1829 m
2020/01/28 00:00 LEXJ 280000Z AUTO VRB02KT 7000 -RA BKN012 BKN030 BKN060 12/11 Q1015
LEPA - Palma de Mallorca
Actualización: 28/01/2020 01:00
Few Clouds
Few Clouds
 Viento del OSO
Viento: OSO 19 km/h
Temperatura: 14°C
Rocío: 10°C
Humedad: 77%
Barómetro: 1020 hPa
Nubosidad: Few Clouds
Visibilidad: 10 km
Cloud details: Few Clouds 671 m
2020/01/28 00:00 LEPA 280000Z 25010KT 9999 FEW022 14/10 Q1020 NOSIG
LEPP - Pamplona
Actualización: 28/01/2020 01:00
Cubierto
Cubierto
 Viento del varies
Viento: varies 2 km/h
Temperatura: 9°C
Rocío: 5°C
Humedad: 76%
Barómetro: 1016 hPa
Nubosidad: Cubierto
Visibilidad: 10 km
Cloud details: Cubierto 1219 m
2020/01/28 00:00 LEPP 280000Z AUTO VRB01KT 9999 OVC040 09/05 Q1016
 
LEST - Santiago de Compostela
Actualización: 28/01/2020 01:00
Mostly Cloudy
Mostly Cloudy
 Viento del O
Viento: O 6 km/h
Temperatura: 9°C
Rocío: 8°C
Humedad: 94%
Barómetro: 1019 hPa
Nubosidad: Mostly Cloudy
Visibilidad: 10 km
Cloud details: Partly Cloudy 610 m
Mostly Cloudy 1006 m
2020/01/28 00:00 LEST 280000Z 27003KT 210V320 9999 SCT020 BKN033 09/08 Q1019 TEMPO 1500 BCFG
LEZL - Sevilla
Actualización: 28/01/2020 01:00
Mostly Cloudy
Mostly Cloudy
 Viento del SSE
Viento: SSE 6 km/h
Temperatura: 13°C
Rocío: 12°C
Humedad: 94%
Barómetro: 1027 hPa
Nubosidad: Mostly Cloudy
Visibilidad: 8 km
Cloud details: Mostly Cloudy 1341 m
2020/01/28 00:00 LEZL 280000Z 16003KT 8000 BKN044 13/12 Q1027 NOSIG
GCXO - Tenerife
Actualización: 28/01/2020 01:00
Mostly Cloudy
Mostly Cloudy
 Viento del SSE
Viento: SSE 11 km/h
Temperatura: 11°C
Rocío: 9°C
Humedad: 88%
Barómetro: 1025 hPa
Nubosidad: Mostly Cloudy
Visibilidad: 10 km
Cloud details: Mostly Cloudy 457 m
2020/01/28 00:00 GCXO 280000Z AUTO 15006KT 120V190 9999 BKN015 11/09 Q1025
 
GCTS - Tenerife-Sur
Actualización: 28/01/2020 01:00
Few Clouds
Few Clouds
 Viento del NE
Viento: NE 13 km/h
Temperatura: 16°C
Rocío: 11°C
Humedad: 72%
Barómetro: 1024 hPa
Nubosidad: Few Clouds
Visibilidad: 10 km
Cloud details: Few Clouds 762 m
2020/01/28 00:00 GCTS 280000Z 04007KT 9999 FEW025 16/11 Q1024 NOSIG
LEVC - Valencia
Actualización: 28/01/2020 01:00
Despejado
Despejado
 Viento del O
Viento: O 20 km/h
Temperatura: 14°C
Rocío: 7°C
Humedad: 63%
Barómetro: 1021 hPa
Resumen: Despejado
Visibilidad: greater than 10 km
2020/01/28 00:00 LEVC 280000Z 26011KT CAVOK 14/07 Q1021 NOSIG
LEVD - Valladolid
Actualización: 28/01/2020 01:00
Cubierto
Cubierto
 Viento del SO
Viento: SO 33 km/h
Temperatura: 8°C
Wind Chill: 3°C
Rocío: 7°C
Humedad: 93%
Barómetro: 1019 hPa
Nubosidad: Cubierto
Visibilidad: 9 km
Cloud details: Cubierto 366 m
2020/01/28 00:00 LEVD 280000Z AUTO 23018KT 9000 OVC012 08/07 Q1019
 
LEVX - Vigo
Actualización: 28/01/2020 01:00
Mostly Cloudy
Mostly Cloudy
 Viento del varies
Viento: varies 7 km/h
Temperatura: 11°C
Rocío: 11°C
Humedad: 100%
Barómetro: 1020 hPa
Nubosidad: Mostly Cloudy
Visibilidad: 7 km
Cloud details: Mostly Cloudy 213 m
Mostly Cloudy 366 m
2020/01/28 00:00 LEVX 280000Z VRB04KT 7000 BKN007 BKN012 11/11 Q1020 NOSIG
LEVT - Vitoria
Actualización: 28/01/2020 01:00
Partly Cloudy
Partly Cloudy
 Viento del SO
Viento: SO 31 km/h
Temperatura: 11°C
Rocío: 7°C
Humedad: 77%
Barómetro: 1015 hPa
Nubosidad: Partly Cloudy
Visibilidad: 10 km
Cloud details: Partly Cloudy 1067 m
2020/01/28 00:00 LEVT 280000Z 23017KT 190V260 9999 SCT035 11/07 Q1015
LEZG - Zaragoza
Actualización: 28/01/2020 01:00
Few Clouds
Few Clouds
 Viento del SO
Viento: SO 30 km/h
Temperatura: 12°C
Rocío: 6°C
Humedad: 67%
Barómetro: 1018 hPa
Nubosidad: Few Clouds
Visibilidad: 10 km
Cloud details: Few Clouds 1981 m
2020/01/28 00:00 LEZG 280000Z 23016KT 9999 FEW065 12/06 Q1018

La estación de MeteoMurcia.com, publica sus datos en los siguientes proyectos:

Weather Underground PWS IMURCIAP2 Meteoclimatic www.awekas.at

W3Counter
Web Analytics